YBHM Airport Information

Runway Information
Runway 14 Length 5591 ft width 148 ft
Elevation 15 ft Threshold 196 ft Heading 143
Runway 32 Length 5591 ft Width 148 ft
Elevation 15 ft Threshold 196 ft Heading 323
Airport Frequencies
Type ATIS Name ATIS Frequency 114.4 MHZ
Type CTAF Name CTAF Frequency 126.7 MHZ
Type FSS Name BRISBANE C Frequency 135.5 MHZ
Type TWR Name TWR Frequency 118.7 MHZ
Airport Navaids
Type VOR-DME Name Hamilton Island Frequency 114400 KHZ
Type NDB Name Hamilton Island Frequency 383 KHZ
Airport Weather Information & NOTAM
ADDS - METARS form results

(0637 UTC 16 October 2021)
Data provider http://aviationweather.gov/metar/data/
 
METAR text: YBHM 160630Z AUTO 05014KT 9999 // NCD 28/09 Q1008 RF00.0/000.0
Conditions at: YBHM (HAMILTON ISLAND , AU) observed 0630 UTC 16 October 2021
Temperature: 28.0°C (82°F)
Dewpoint: 9.0°C (48°F) [RH = 30%]
Pressure (altimeter): 29.76 inches Hg (1008.0 mb)
Winds: from the NE (50 degrees) at 16 MPH (14 knots; 7.2 m/s)
Visibility: 6 or more miles (10+ km)
Ceiling: at least 12,000 feet AGL
Clouds: sky clear below 12,000 feet AGL
Weather: no significant weather observed at this time

METAR text: YBHM 160600Z AUTO 07011KT 9999 // NCD 28/12 Q1008
Conditions at: YBHM (HAMILTON ISLAND , AU) observed 0600 UTC 16 October 2021
Temperature: 28.0°C (82°F)
Dewpoint: 12.0°C (54°F) [RH = 37%]
Pressure (altimeter): 29.76 inches Hg (1008.0 mb)
Winds: from the ENE (70 degrees) at 13 MPH (11 knots; 5.7 m/s)
Visibility: 6 or more miles (10+ km)
Ceiling: at least 12,000 feet AGL
Clouds: sky clear below 12,000 feet AGL
Weather: no significant weather observed at this time

Forecast for: YBHM (HAMILTON ISLAND , AU)
Text: TAF YBHM 160429Z 1606/1618 07014KT CAVOK
Forecast period: 0600 to 1100 UTC 16 October 2021
Forecast type: FROM: standard forecast or significant change
Winds: from the ENE (70 degrees) at 16 MPH (14 knots; 7.2 m/s)
Visibility: 6 or more miles (10+ km)
Ceiling: unknown
Clouds: missing
Weather: NSW  (no significant weather)
Text: FM161100 03008KT CAVOK
Forecast period: 1100 to 1800 UTC 16 October 2021
Forecast type: FROM: standard forecast or significant change
Winds: from the NNE (30 degrees) at 9 MPH (8 knots; 4.1 m/s)
Visibility: 6 or more miles (10+ km)
Ceiling: unknown
Clouds: missing
Weather: NSW  (no significant weather)